sensor_id;sensor_type;location;lat;lon;timestamp;pressure;altitude;pressure_sealevel;temperature;humidity
10518;BME280;5307;42.548;22.968;2022-09-09T00:00:19;94073.69;;;17.71;91.27
10518;BME280;5307;42.548;22.968;2022-09-09T00:02:54;94074.38;;;17.66;91.16
10518;BME280;5307;42.548;22.968;2022-09-09T00:05:29;94076.03;;;17.58;91.27
10518;BME280;5307;42.548;22.968;2022-09-09T00:07:59;94068.56;;;17.38;91.59
10518;BME280;5307;42.548;22.968;2022-09-09T00:10:31;94069.13;;;17.42;91.74
10518;BME280;5307;42.548;22.968;2022-09-09T00:19:20;94061.53;;;17.37;91.83
10518;BME280;5307;42.548;22.968;2022-09-09T00:22:00;94065.47;;;17.31;92.49
10518;BME280;5307;42.548;22.968;2022-09-09T00:24:34;94063.44;;;16.85;94.37
10518;BME280;5307;42.548;22.968;2022-09-09T00:27:07;94051.31;;;16.97;95.01
10518;BME280;5307;42.548;22.968;2022-09-09T00:29:40;94051.56;;;16.99;94.22
10518;BME280;5307;42.548;22.968;2022-09-09T00:32:13;94055.78;;;16.95;94.55
10518;BME280;5307;42.548;22.968;2022-09-09T00:34:48;94061.38;;;17.00;93.58
10518;BME280;5307;42.548;22.968;2022-09-09T00:37:16;94058.34;;;16.98;93.07
10518;BME280;5307;42.548;22.968;2022-09-09T00:39:45;94059.53;;;16.91;93.49
10518;BME280;5307;42.548;22.968;2022-09-09T00:42:15;94054.63;;;16.81;94.79
10518;BME280;5307;42.548;22.968;2022-09-09T00:44:58;94045.16;;;16.87;95.42
10518;BME280;5307;42.548;22.968;2022-09-09T00:47:39;94047.44;;;16.69;95.23
10518;BME280;5307;42.548;22.968;2022-09-09T00:50:38;94044.97;;;16.71;95.34
10518;BME280;5307;42.548;22.968;2022-09-09T00:53:27;94046.09;;;16.79;94.53
10518;BME280;5307;42.548;22.968;2022-09-09T00:56:06;94047.44;;;16.69;95.32
10518;BME280;5307;42.548;22.968;2022-09-09T00:58:34;94053.91;;;16.66;96.30
10518;BME280;5307;42.548;22.968;2022-09-09T01:01:04;94055.16;;;16.65;94.75
10518;BME280;5307;42.548;22.968;2022-09-09T01:03:37;94052.34;;;16.44;96.14
10518;BME280;5307;42.548;22.968;2022-09-09T01:06:21;94047.84;;;16.61;96.30
10518;BME280;5307;42.548;22.968;2022-09-09T01:09:04;94065.31;;;16.58;95.67
10518;BME280;5307;42.548;22.968;2022-09-09T01:11:37;94058.38;;;16.63;96.07
10518;BME280;5307;42.548;22.968;2022-09-09T01:14:16;94066.09;;;16.59;96.67
10518;BME280;5307;42.548;22.968;2022-09-09T01:16:54;94055.25;;;16.55;96.51
10518;BME280;5307;42.548;22.968;2022-09-09T01:19:40;94050.47;;;16.71;95.89
10518;BME280;5307;42.548;22.968;2022-09-09T01:22:18;94042.88;;;16.66;95.92
10518;BME280;5307;42.548;22.968;2022-09-09T01:25:06;94044.03;;;16.59;95.52
10518;BME280;5307;42.548;22.968;2022-09-09T01:27:36;94050.34;;;16.80;95.67
10518;BME280;5307;42.548;22.968;2022-09-09T01:30:05;94045.94;;;16.68;95.19
10518;BME280;5307;42.548;22.968;2022-09-09T01:32:41;94047.25;;;16.57;96.46
10518;BME280;5307;42.548;22.968;2022-09-09T01:35:11;94051.03;;;16.75;95.72
10518;BME280;5307;42.548;22.968;2022-09-09T01:37:39;94050.88;;;16.63;95.68
10518;BME280;5307;42.548;22.968;2022-09-09T01:40:07;94047.44;;;16.69;96.04
10518;BME280;5307;42.548;22.968;2022-09-09T01:42:36;94046.50;;;16.57;96.90
10518;BME280;5307;42.548;22.968;2022-09-09T01:45:03;94039.25;;;16.59;96.54
10518;BME280;5307;42.548;22.968;2022-09-09T01:47:30;94041.63;;;16.67;95.67
10518;BME280;5307;42.548;22.968;2022-09-09T01:49:58;94042.59;;;16.63;95.57
10518;BME280;5307;42.548;22.968;2022-09-09T01:52:26;94039.97;;;16.54;96.07
10518;BME280;5307;42.548;22.968;2022-09-09T01:54:53;94039.69;;;16.52;96.34
10518;BME280;5307;42.548;22.968;2022-09-09T01:57:23;94047.31;;;16.43;96.45
10518;BME280;5307;42.548;22.968;2022-09-09T02:00:01;94047.53;;;16.39;97.20
10518;BME280;5307;42.548;22.968;2022-09-09T02:02:35;94044.09;;;16.44;97.29
10518;BME280;5307;42.548;22.968;2022-09-09T02:05:11;94041.75;;;16.57;95.47
10518;BME280;5307;42.548;22.968;2022-09-09T02:07:43;94041.22;;;16.53;94.25
10518;BME280;5307;42.548;22.968;2022-09-09T02:10:17;94047.69;;;16.50;95.04
10518;BME280;5307;42.548;22.968;2022-09-09T02:12:51;94049.59;;;16.44;96.18
10518;BME280;5307;42.548;22.968;2022-09-09T02:15:26;94037.66;;;16.32;95.86
10518;BME280;5307;42.548;22.968;2022-09-09T02:17:57;94044.06;;;16.24;95.87
10518;BME280;5307;42.548;22.968;2022-09-09T02:20:24;94053.66;;;16.14;97.54
10518;BME280;5307;42.548;22.968;2022-09-09T02:22:53;94056.16;;;16.12;96.64
10518;BME280;5307;42.548;22.968;2022-09-09T02:25:25;94054.06;;;16.42;96.06
10518;BME280;5307;42.548;22.968;2022-09-09T02:27:53;94059.53;;;16.36;95.78
10518;BME280;5307;42.548;22.968;2022-09-09T02:30:21;94068.09;;;16.23;96.85
10518;BME280;5307;42.548;22.968;2022-09-09T02:32:51;94069.25;;;16.17;96.93
10518;BME280;5307;42.548;22.968;2022-09-09T02:35:23;94067.94;;;16.12;96.93
10518;BME280;5307;42.548;22.968;2022-09-09T02:37:53;94061.84;;;16.23;96.89
10518;BME280;5307;42.548;22.968;2022-09-09T02:40:22;94060.31;;;16.22;96.85
10518;BME280;5307;42.548;22.968;2022-09-09T02:42:49;94060.16;;;16.11;96.38
10518;BME280;5307;42.548;22.968;2022-09-09T02:45:19;94068.63;;;16.07;96.54
10518;BME280;5307;42.548;22.968;2022-09-09T02:47:52;94060.41;;;16.13;97.29
10518;BME280;5307;42.548;22.968;2022-09-09T02:50:25;94065.28;;;16.03;97.52
10518;BME280;5307;42.548;22.968;2022-09-09T02:53:02;94061.13;;;15.93;98.01
10518;BME280;5307;42.548;22.968;2022-09-09T02:55:38;94061.19;;;16.13;96.98
10518;BME280;5307;42.548;22.968;2022-09-09T02:58:08;94053.66;;;16.14;96.36
10518;BME280;5307;42.548;22.968;2022-09-09T03:00:38;94055.72;;;15.84;97.01
10518;BME280;5307;42.548;22.968;2022-09-09T03:03:07;94043.09;;;15.77;98.40
10518;BME280;5307;42.548;22.968;2022-09-09T03:05:35;94045.66;;;15.81;98.62
10518;BME280;5307;42.548;22.968;2022-09-09T03:08:02;94053.16;;;15.80;98.43
10518;BME280;5307;42.548;22.968;2022-09-09T03:10:29;94060.06;;;15.76;97.76
10518;BME280;5307;42.548;22.968;2022-09-09T03:12:56;94050.97;;;15.84;97.97
10518;BME280;5307;42.548;22.968;2022-09-09T03:15:23;94056.75;;;15.86;99.28
10518;BME280;5307;42.548;22.968;2022-09-09T03:17:54;94057.03;;;15.88;98.33
10518;BME280;5307;42.548;22.968;2022-09-09T03:20:23;94054.06;;;16.07;97.85
10518;BME280;5307;42.548;22.968;2022-09-09T03:22:51;94059.91;;;15.79;98.01
10518;BME280;5307;42.548;22.968;2022-09-09T03:25:18;94060.47;;;15.68;97.98
10518;BME280;5307;42.548;22.968;2022-09-09T03:27:45;94052.56;;;15.76;97.12
10518;BME280;5307;42.548;22.968;2022-09-09T03:30:12;94052.88;;;15.78;97.18
10518;BME280;5307;42.548;22.968;2022-09-09T03:32:39;94062.00;;;15.69;97.62
10518;BME280;5307;42.548;22.968;2022-09-09T03:35:06;94061.31;;;15.60;97.04
10518;BME280;5307;42.548;22.968;2022-09-09T03:37:35;94060.72;;;15.56;97.44
10518;BME280;5307;42.548;22.968;2022-09-09T03:40:02;94061.97;;;15.55;97.34
10518;BME280;5307;42.548;22.968;2022-09-09T03:42:29;94073.03;;;15.45;96.36
10518;BME280;5307;42.548;22.968;2022-09-09T03:44:56;94073.69;;;15.26;97.38
10518;BME280;5307;42.548;22.968;2022-09-09T03:47:23;94070.00;;;15.43;97.31
10518;BME280;5307;42.548;22.968;2022-09-09T03:49:50;94066.22;;;15.41;96.58
10518;BME280;5307;42.548;22.968;2022-09-09T03:52:16;94066.50;;;15.28;97.21
10518;BME280;5307;42.548;22.968;2022-09-09T03:54:45;94063.53;;;15.17;98.53
10518;BME280;5307;42.548;22.968;2022-09-09T03:57:12;94060.81;;;15.47;97.59
10518;BME280;5307;42.548;22.968;2022-09-09T03:59:41;94067.72;;;15.27;96.37
10518;BME280;5307;42.548;22.968;2022-09-09T04:02:09;94066.28;;;15.17;97.04
10518;BME280;5307;42.548;22.968;2022-09-09T04:04:36;94070.69;;;15.00;97.58
10518;BME280;5307;42.548;22.968;2022-09-09T04:07:03;94070.69;;;15.00;97.44
10518;BME280;5307;42.548;22.968;2022-09-09T04:09:31;94077.25;;;15.02;97.83
10518;BME280;5307;42.548;22.968;2022-09-09T04:11:59;94075.75;;;15.16;96.96
10518;BME280;5307;42.548;22.968;2022-09-09T04:14:26;94068.88;;;15.35;96.17
10518;BME280;5307;42.548;22.968;2022-09-09T04:16:54;94068.28;;;15.31;96.96
10518;BME280;5307;42.548;22.968;2022-09-09T04:19:21;94062.38;;;15.09;97.06
10518;BME280;5307;42.548;22.968;2022-09-09T04:21:48;94055.38;;;15.08;98.05
10518;BME280;5307;42.548;22.968;2022-09-09T04:24:17;94057.56;;;15.33;98.44
10518;BME280;5307;42.548;22.968;2022-09-09T04:26:44;94070.13;;;15.34;96.78
10518;BME280;5307;42.548;22.968;2022-09-09T04:29:13;94073.91;;;15.37;97.16
10518;BME280;5307;42.548;22.968;2022-09-09T04:31:53;94082.06;;;15.46;96.90
10518;BME280;5307;42.548;22.968;2022-09-09T04:34:20;94084.81;;;15.46;96.94
10518;BME280;5307;42.548;22.968;2022-09-09T04:36:46;94093.06;;;15.31;98.29
10518;BME280;5307;42.548;22.968;2022-09-09T04:39:14;94089.94;;;15.38;98.13
10518;BME280;5307;42.548;22.968;2022-09-09T04:41:41;94087.00;;;15.42;98.84
10518;BME280;5307;42.548;22.968;2022-09-09T04:44:08;94070.34;;;15.60;98.89
10518;BME280;5307;42.548;22.968;2022-09-09T04:46:44;94062.84;;;15.61;99.81
10518;BME280;5307;42.548;22.968;2022-09-09T04:49:11;94061.16;;;15.63;98.57
10518;BME280;5307;42.548;22.968;2022-09-09T04:51:38;94058.66;;;15.80;99.80
10518;BME280;5307;42.548;22.968;2022-09-09T04:54:05;94057.72;;;15.68;99.68
10518;BME280;5307;42.548;22.968;2022-09-09T04:56:32;94056.56;;;15.60;100.00
10518;BME280;5307;42.548;22.968;2022-09-09T04:59:01;94055.53;;;15.72;100.00
10518;BME280;5307;42.548;22.968;2022-09-09T05:01:28;94049.53;;;15.74;100.00
10518;BME280;5307;42.548;22.968;2022-09-09T05:03:56;94040.59;;;15.94;99.58
10518;BME280;5307;42.548;22.968;2022-09-09T05:06:23;94053.66;;;16.14;98.09
10518;BME280;5307;42.548;22.968;2022-09-09T05:08:50;94065.69;;;16.31;97.60
10518;BME280;5307;42.548;22.968;2022-09-09T05:11:18;94060.91;;;16.46;97.47
10518;BME280;5307;42.548;22.968;2022-09-09T05:13:46;94047.81;;;16.41;97.69
10518;BME280;5307;42.548;22.968;2022-09-09T05:16:13;94055.97;;;16.50;95.22
10518;BME280;5307;42.548;22.968;2022-09-09T05:18:41;94054.56;;;16.40;94.04
10518;BME280;5307;42.548;22.968;2022-09-09T05:21:11;94055.53;;;16.37;93.99
10518;BME280;5307;42.548;22.968;2022-09-09T05:23:38;94050.53;;;16.21;94.55
10518;BME280;5307;42.548;22.968;2022-09-09T05:26:06;94051.91;;;16.31;94.38
10518;BME280;5307;42.548;22.968;2022-09-09T05:28:34;94040.50;;;16.38;94.14
10518;BME280;5307;42.548;22.968;2022-09-09T05:31:03;94033.81;;;16.45;93.94
10518;BME280;5307;42.548;22.968;2022-09-09T05:33:31;94024.31;;;16.66;93.12
10518;BME280;5307;42.548;22.968;2022-09-09T05:35:59;94027.84;;;17.07;92.84
10518;BME280;5307;42.548;22.968;2022-09-09T05:38:28;94025.50;;;17.46;92.22
10518;BME280;5307;42.548;22.968;2022-09-09T05:40:55;94040.66;;;17.83;91.41
10518;BME280;5307;42.548;22.968;2022-09-09T05:43:23;94037.25;;;17.99;90.22
10518;BME280;5307;42.548;22.968;2022-09-09T05:45:59;94049.47;;;18.18;88.81
10518;BME280;5307;42.548;22.968;2022-09-09T05:48:28;94048.91;;;18.46;88.01
10518;BME280;5307;42.548;22.968;2022-09-09T05:50:56;94045.91;;;18.55;87.09
10518;BME280;5307;42.548;22.968;2022-09-09T05:53:23;94046.09;;;18.40;87.11
10518;BME280;5307;42.548;22.968;2022-09-09T05:55:58;94057.41;;;18.42;86.56
10518;BME280;5307;42.548;22.968;2022-09-09T05:58:25;94055.94;;;18.47;86.33
10518;BME280;5307;42.548;22.968;2022-09-09T06:00:52;94061.97;;;18.45;85.64
10518;BME280;5307;42.548;22.968;2022-09-09T06:03:20;94056.47;;;18.99;84.82
10518;BME280;5307;42.548;22.968;2022-09-09T06:05:57;94050.78;;;19.19;84.06
10518;BME280;5307;42.548;22.968;2022-09-09T06:08:24;94059.03;;;19.08;83.11
10518;BME280;5307;42.548;22.968;2022-09-09T06:10:52;94063.53;;;19.00;84.11
10518;BME280;5307;42.548;22.968;2022-09-09T06:13:19;94052.63;;;19.50;82.63
10518;BME280;5307;42.548;22.968;2022-09-09T06:15:49;94039.31;;;19.66;82.13
10518;BME280;5307;42.548;22.968;2022-09-09T06:18:17;94046.16;;;20.09;80.05
10518;BME280;5307;42.548;22.968;2022-09-09T06:20:53;94040.34;;;20.47;79.95
10518;BME280;5307;42.548;22.968;2022-09-09T06:23:20;94039.97;;;20.95;76.64
10518;BME280;5307;42.548;22.968;2022-09-09T06:25:47;94027.66;;;20.79;76.78
10518;BME280;5307;42.548;22.968;2022-09-09T06:28:16;94035.59;;;21.11;76.91
10518;BME280;5307;42.548;22.968;2022-09-09T06:30:42;94037.19;;;21.53;75.44
10518;BME280;5307;42.548;22.968;2022-09-09T06:33:10;94041.19;;;21.99;73.62
10518;BME280;5307;42.548;22.968;2022-09-09T06:35:36;94041.38;;;21.29;74.46
10518;BME280;5307;42.548;22.968;2022-09-09T06:38:03;94040.88;;;21.25;76.42
10518;BME280;5307;42.548;22.968;2022-09-09T06:40:31;94038.94;;;21.97;72.95
10518;BME280;5307;42.548;22.968;2022-09-09T06:42:59;94039.44;;;21.60;73.67
10518;BME280;5307;42.548;22.968;2022-09-09T06:45:28;94049.28;;;21.61;72.68
10518;BME280;5307;42.548;22.968;2022-09-09T06:47:55;94050.31;;;21.58;72.45
10518;BME280;5307;42.548;22.968;2022-09-09T06:50:41;94060.78;;;22.47;70.13
10518;BME280;5307;42.548;22.968;2022-09-09T06:53:08;94053.72;;;22.46;68.00
10518;BME280;5307;42.548;22.968;2022-09-09T06:55:35;94048.22;;;22.11;67.02
10518;BME280;5307;42.548;22.968;2022-09-09T06:58:07;94054.84;;;22.32;68.23
10518;BME280;5307;42.548;22.968;2022-09-09T07:00:36;94046.00;;;22.58;69.08
10518;BME280;5307;42.548;22.968;2022-09-09T07:03:03;94054.34;;;22.88;64.96
10518;BME280;5307;42.548;22.968;2022-09-09T07:05:30;94043.13;;;23.37;64.36
10518;BME280;5307;42.548;22.968;2022-09-09T07:07:57;94046.66;;;22.70;64.35
10518;BME280;5307;42.548;22.968;2022-09-09T07:10:24;94045.22;;;23.31;62.73
10518;BME280;5307;42.548;22.968;2022-09-09T07:12:52;94032.25;;;23.15;61.73
10518;BME280;5307;42.548;22.968;2022-09-09T07:15:19;94036.41;;;23.27;61.40
10518;BME280;5307;42.548;22.968;2022-09-09T07:17:48;94050.78;;;22.88;63.56
10518;BME280;5307;42.548;22.968;2022-09-09T07:20:15;94042.69;;;24.21;61.48
10518;BME280;5307;42.548;22.968;2022-09-09T07:22:42;94045.63;;;23.59;61.69
10518;BME280;5307;42.548;22.968;2022-09-09T07:25:09;94038.84;;;23.74;61.38
10518;BME280;5307;42.548;22.968;2022-09-09T07:27:35;94039.03;;;23.19;62.63
10518;BME280;5307;42.548;22.968;2022-09-09T07:30:03;94037.19;;;23.65;60.90
10518;BME280;5307;42.548;22.968;2022-09-09T07:32:30;94044.09;;;23.77;59.97
10518;BME280;5307;42.548;22.968;2022-09-09T07:34:58;94037.78;;;23.77;61.48
10518;BME280;5307;42.548;22.968;2022-09-09T07:37:25;94042.41;;;24.06;60.25
10518;BME280;5307;42.548;22.968;2022-09-09T07:39:52;94048.94;;;23.95;61.15
10518;BME280;5307;42.548;22.968;2022-09-09T07:42:19;94046.31;;;23.65;60.97
10518;BME280;5307;42.548;22.968;2022-09-09T07:44:45;94058.56;;;23.57;61.94
10518;BME280;5307;42.548;22.968;2022-09-09T07:47:12;94058.56;;;23.57;62.72
10518;BME280;5307;42.548;22.968;2022-09-09T07:49:39;94056.69;;;23.84;62.62
10518;BME280;5307;42.548;22.968;2022-09-09T07:52:07;94055.94;;;23.02;63.22
10518;BME280;5307;42.548;22.968;2022-09-09T07:54:34;94046.06;;;23.26;63.96
10518;BME280;5307;42.548;22.968;2022-09-09T07:57:01;94053.50;;;23.18;63.98
10518;BME280;5307;42.548;22.968;2022-09-09T07:59:29;94057.13;;;22.88;63.74
10518;BME280;5307;42.548;22.968;2022-09-09T08:01:56;94050.56;;;22.80;64.58
10518;BME280;5307;42.548;22.968;2022-09-09T08:04:25;94056.78;;;22.97;64.78
10518;BME280;5307;42.548;22.968;2022-09-09T08:06:54;94060.34;;;22.92;65.04
10518;BME280;5307;42.548;22.968;2022-09-09T08:09:24;94067.53;;;22.82;64.75
10518;BME280;5307;42.548;22.968;2022-09-09T08:11:54;94057.78;;;22.94;65.99
10518;BME280;5307;42.548;22.968;2022-09-09T08:14:22;94058.84;;;23.16;63.85
10518;BME280;5307;42.548;22.968;2022-09-09T08:16:49;94057.69;;;23.05;66.24
10518;BME280;5307;42.548;22.968;2022-09-09T08:19:19;94066.63;;;22.98;65.30
10518;BME280;5307;42.548;22.968;2022-09-09T08:21:46;94055.00;;;22.94;65.62
10518;BME280;5307;42.548;22.968;2022-09-09T08:24:14;94049.03;;;23.09;64.60
10518;BME280;5307;42.548;22.968;2022-09-09T08:26:44;94050.84;;;22.82;66.00
10518;BME280;5307;42.548;22.968;2022-09-09T08:29:12;94055.34;;;23.72;66.02
10518;BME280;5307;42.548;22.968;2022-09-09T08:31:41;94050.09;;;23.68;64.42
10518;BME280;5307;42.548;22.968;2022-09-09T08:34:08;94034.94;;;24.14;63.46
10518;BME280;5307;42.548;22.968;2022-09-09T08:36:37;94027.00;;;23.86;63.40
10518;BME280;5307;42.548;22.968;2022-09-09T08:39:06;94030.47;;;24.06;63.82
10518;BME280;5307;42.548;22.968;2022-09-09T08:42:09;94029.19;;;24.07;62.11
10518;BME280;5307;42.548;22.968;2022-09-09T08:44:55;94031.88;;;23.99;61.79
10518;BME280;5307;42.548;22.968;2022-09-09T08:47:30;94031.75;;;24.23;62.35
10518;BME280;5307;42.548;22.968;2022-09-09T08:50:20;94029.25;;;23.88;62.05
10518;BME280;5307;42.548;22.968;2022-09-09T08:52:54;94034.84;;;23.69;62.84
10518;BME280;5307;42.548;22.968;2022-09-09T08:55:28;94031.53;;;23.71;62.33
10518;BME280;5307;42.548;22.968;2022-09-09T08:58:02;94039.72;;;23.44;63.01
10518;BME280;5307;42.548;22.968;2022-09-09T09:00:38;94040.63;;;23.33;63.18
10518;BME280;5307;42.548;22.968;2022-09-09T09:03:15;94027.84;;;23.62;64.84
10518;BME280;5307;42.548;22.968;2022-09-09T09:06:03;94035.44;;;23.81;64.88
10518;BME280;5307;42.548;22.968;2022-09-09T09:08:37;94037.44;;;23.99;64.98
10518;BME280;5307;42.548;22.968;2022-09-09T09:11:06;94041.09;;;24.26;62.73
10518;BME280;5307;42.548;22.968;2022-09-09T09:13:39;94043.09;;;24.12;63.62
10518;BME280;5307;42.548;22.968;2022-09-09T09:16:15;94048.28;;;23.71;64.32
10518;BME280;5307;42.548;22.968;2022-09-09T09:18:44;94046.66;;;23.75;62.83
10518;BME280;5307;42.548;22.968;2022-09-09T09:21:13;94036.19;;;23.62;63.43
10518;BME280;5307;42.548;22.968;2022-09-09T09:23:49;94029.19;;;23.75;63.93
10518;BME280;5307;42.548;22.968;2022-09-09T09:26:21;94034.69;;;23.80;63.20
10518;BME280;5307;42.548;22.968;2022-09-09T09:28:53;94031.22;;;23.93;62.94
10518;BME280;5307;42.548;22.968;2022-09-09T09:31:21;94018.81;;;24.07;63.35
10518;BME280;5307;42.548;22.968;2022-09-09T09:33:53;94025.81;;;24.14;64.10
10518;BME280;5307;42.548;22.968;2022-09-09T09:36:24;94030.84;;;23.64;64.47
10518;BME280;5307;42.548;22.968;2022-09-09T09:38:54;94020.97;;;23.63;64.71
10518;BME280;5307;42.548;22.968;2022-09-09T09:41:33;94021.31;;;23.92;64.71
10518;BME280;5307;42.548;22.968;2022-09-09T09:44:02;94026.56;;;23.63;65.36
10518;BME280;5307;42.548;22.968;2022-09-09T09:46:32;94012.97;;;23.73;66.52
10518;BME280;5307;42.548;22.968;2022-09-09T09:49:01;94031.81;;;23.48;65.84
10518;BME280;5307;42.548;22.968;2022-09-09T09:55:28;94036.41;;;23.46;67.71
10518;BME280;5307;42.548;22.968;2022-09-09T10:04:28;94035.56;;;23.32;67.37
10518;BME280;5307;42.548;22.968;2022-09-09T10:06:55;94045.66;;;23.35;68.03
10518;BME280;5307;42.548;22.968;2022-09-09T10:09:29;94044.59;;;23.19;67.29
10518;BME280;5307;42.548;22.968;2022-09-09T10:12:03;94041.88;;;22.95;67.13
10518;BME280;5307;42.548;22.968;2022-09-09T10:14:38;94048.63;;;22.99;67.33
10518;BME280;5307;42.548;22.968;2022-09-09T10:17:17;94048.56;;;23.05;67.98
10518;BME280;5307;42.548;22.968;2022-09-09T10:19:58;94047.56;;;23.27;67.67
10518;BME280;5307;42.548;22.968;2022-09-09T10:22:33;94050.03;;;23.12;67.25
10518;BME280;5307;42.548;22.968;2022-09-09T10:25:25;94043.69;;;23.11;67.36
10518;BME280;5307;42.548;22.968;2022-09-09T10:30:58;94064.00;;;23.06;66.72
10518;BME280;5307;42.548;22.968;2022-09-09T10:33:36;94064.53;;;23.04;66.88
10518;BME280;5307;42.548;22.968;2022-09-09T10:36:23;94051.16;;;23.22;68.74
10518;BME280;5307;42.548;22.968;2022-09-09T10:38:54;94056.81;;;23.16;67.21
10518;BME280;5307;42.548;22.968;2022-09-09T10:41:35;94058.41;;;23.30;68.93
10518;BME280;5307;42.548;22.968;2022-09-09T10:44:23;94064.94;;;23.33;67.94
10518;BME280;5307;42.548;22.968;2022-09-09T10:47:05;94068.88;;;23.24;65.70
10518;BME280;5307;42.548;22.968;2022-09-09T10:49:59;94063.38;;;23.37;67.34
10518;BME280;5307;42.548;22.968;2022-09-09T10:52:33;94069.41;;;23.42;71.30
10518;BME280;5307;42.548;22.968;2022-09-09T10:55:10;94079.13;;;23.35;67.21
10518;BME280;5307;42.548;22.968;2022-09-09T10:57:41;94083.19;;;23.34;66.80
10518;BME280;5307;42.548;22.968;2022-09-09T11:00:17;94087.47;;;23.35;68.12
10518;BME280;5307;42.548;22.968;2022-09-09T11:02:48;94082.84;;;23.19;66.40
10518;BME280;5307;42.548;22.968;2022-09-09T11:05:19;94085.06;;;23.26;71.61
10518;BME280;5307;42.548;22.968;2022-09-09T11:07:53;94072.78;;;23.34;73.06
10518;BME280;5307;42.548;22.968;2022-09-09T11:10:26;94066.78;;;23.06;73.80
10518;BME280;5307;42.548;22.968;2022-09-09T11:12:59;94046.28;;;23.28;73.94
10518;BME280;5307;42.548;22.968;2022-09-09T11:15:33;94045.34;;;23.20;80.63
10518;BME280;5307;42.548;22.968;2022-09-09T11:18:04;94044.97;;;23.10;77.55
10518;BME280;5307;42.548;22.968;2022-09-09T11:20:33;94041.28;;;23.21;77.40
10518;BME280;5307;42.548;22.968;2022-09-09T11:23:04;94024.47;;;23.07;72.84
10518;BME280;5307;42.548;22.968;2022-09-09T11:25:37;93999.72;;;23.23;73.02
10518;BME280;5307;42.548;22.968;2022-09-09T11:28:20;93999.34;;;23.32;70.88
10518;BME280;5307;42.548;22.968;2022-09-09T11:31:01;94001.06;;;23.35;69.50
10518;BME280;5307;42.548;22.968;2022-09-09T11:33:56;94010.34;;;23.43;73.35
10518;BME280;5307;42.548;22.968;2022-09-09T11:36:47;94016.75;;;23.57;70.74
10518;BME280;5307;42.548;22.968;2022-09-09T11:42:25;94008.91;;;23.18;69.80
10518;BME280;5307;42.548;22.968;2022-09-09T11:44:52;94001.06;;;23.16;70.99
10518;BME280;5307;42.548;22.968;2022-09-09T11:47:22;94003.31;;;22.99;71.01
10518;BME280;5307;42.548;22.968;2022-09-09T11:49:55;93985.25;;;23.05;70.81
10518;BME280;5307;42.548;22.968;2022-09-09T11:52:24;93989.84;;;23.22;74.40
10518;BME280;5307;42.548;22.968;2022-09-09T11:54:55;93990.09;;;23.24;76.60
10518;BME280;5307;42.548;22.968;2022-09-09T11:57:26;93998.22;;;23.40;73.92
10518;BME280;5307;42.548;22.968;2022-09-09T11:59:57;93992.47;;;23.33;72.79
10518;BME280;5307;42.548;22.968;2022-09-09T12:02:27;93993.75;;;23.32;72.23
10518;BME280;5307;42.548;22.968;2022-09-09T12:04:57;93995.50;;;23.35;73.27
10518;BME280;5307;42.548;22.968;2022-09-09T12:07:31;93996.84;;;23.47;74.56
10518;BME280;5307;42.548;22.968;2022-09-09T12:10:04;93996.09;;;23.28;72.43
10518;BME280;5307;42.548;22.968;2022-09-09T12:12:34;94000.09;;;23.14;70.86
10518;BME280;5307;42.548;22.968;2022-09-09T12:15:20;93989.63;;;23.20;73.15
10518;BME280;5307;42.548;22.968;2022-09-09T12:17:49;93988.41;;;23.15;70.17
10518;BME280;5307;42.548;22.968;2022-09-09T12:20:19;93987.06;;;23.22;72.26
10518;BME280;5307;42.548;22.968;2022-09-09T12:23:14;93989.63;;;23.20;73.78
10518;BME280;5307;42.548;22.968;2022-09-09T12:25:55;93992.78;;;23.10;71.96
10518;BME280;5307;42.548;22.968;2022-09-09T12:28:30;93989.84;;;23.22;73.93
10518;BME280;5307;42.548;22.968;2022-09-09T12:31:07;93991.78;;;23.08;73.54
10518;BME280;5307;42.548;22.968;2022-09-09T12:33:40;93986.28;;;23.02;74.24
10518;BME280;5307;42.548;22.968;2022-09-09T12:36:12;93981.47;;;23.03;74.38
10518;BME280;5307;42.548;22.968;2022-09-09T12:38:42;93973.19;;;22.97;74.25
10518;BME280;5307;42.548;22.968;2022-09-09T12:41:20;93969.44;;;22.95;74.14
10518;BME280;5307;42.548;22.968;2022-09-09T12:43:47;93963.09;;;22.94;73.76
10518;BME280;5307;42.548;22.968;2022-09-09T12:46:24;93955.22;;;22.98;74.70
10518;BME280;5307;42.548;22.968;2022-09-09T12:48:57;93954.06;;;23.07;73.38
10518;BME280;5307;42.548;22.968;2022-09-09T12:51:26;93938.88;;;23.27;74.47
10518;BME280;5307;42.548;22.968;2022-09-09T12:53:54;93930.66;;;23.16;74.55
10518;BME280;5307;42.548;22.968;2022-09-09T12:56:25;93942.16;;;23.06;72.52
10518;BME280;5307;42.548;22.968;2022-09-09T12:58:57;93940.06;;;23.13;74.08
10518;BME280;5307;42.548;22.968;2022-09-09T13:01:28;93941.06;;;23.15;75.60
10518;BME280;5307;42.548;22.968;2022-09-09T13:03:55;93933.75;;;23.12;75.26
10518;BME280;5307;42.548;22.968;2022-09-09T13:06:23;93937.28;;;22.94;73.70
10518;BME280;5307;42.548;22.968;2022-09-09T13:08:51;93932.53;;;23.07;77.14
10518;BME280;5307;42.548;22.968;2022-09-09T13:11:23;93926.22;;;22.88;74.04
10518;BME280;5307;42.548;22.968;2022-09-09T13:13:53;93918.44;;;22.81;75.52
10518;BME280;5307;42.548;22.968;2022-09-09T13:16:22;93913.16;;;22.77;77.60
10518;BME280;5307;42.548;22.968;2022-09-09T13:18:52;93918.19;;;22.79;81.62
10518;BME280;5307;42.548;22.968;2022-09-09T13:21:31;93907.03;;;22.79;81.20
10518;BME280;5307;42.548;22.968;2022-09-09T13:23:59;93907.56;;;22.77;81.73
10518;BME280;5307;42.548;22.968;2022-09-09T13:26:31;93906.91;;;22.71;84.18
10518;BME280;5307;42.548;22.968;2022-09-09T13:29:09;93895.13;;;22.84;83.88
10518;BME280;5307;42.548;22.968;2022-09-09T13:31:44;93890.78;;;22.64;81.01
10518;BME280;5307;42.548;22.968;2022-09-09T13:34:12;93882.38;;;22.70;78.09
10518;BME280;5307;42.548;22.968;2022-09-09T13:36:40;93878.16;;;22.82;77.84
10518;BME280;5307;42.548;22.968;2022-09-09T13:39:15;93888.94;;;22.91;82.32
10518;BME280;5307;42.548;22.968;2022-09-09T13:41:46;93896.00;;;22.92;75.05
10518;BME280;5307;42.548;22.968;2022-09-09T13:44:17;93894.59;;;22.86;76.69